Time;durP1;ratioP1;P1;durP2;ratioP2;P2;SDS_P1;SDS_P2;PMS_P1;PMS_P2;Temp;Humidity;BMP_temperature;BMP_pressure;BME280_temperature;BME280_humidity;BME280_pressure;Samples;Min_cycle;Max_cycle;Signal;HPM_P1;HPM_P2
2022/09/02 00:00:49;;;;;;;2.00;1.02;;;19.30;88.00;;;;;;5014894;28;20267;-58
2022/09/02 00:03:15;;;;;;;2.30;1.00;;;19.30;88.20;;;;;;5015089;28;20164;-58
2022/09/02 00:05:41;;;;;;;2.38;1.00;;;19.30;88.40;;;;;;5013615;28;20527;-58
2022/09/02 00:08:08;;;;;;;1.95;1.45;;;19.20;88.20;;;;;;5015195;28;20204;-58
2022/09/02 00:10:36;;;;;;;1.77;1.30;;;19.20;88.60;;;;;;5014712;28;20180;-58
2022/09/02 00:13:02;;;;;;;1.25;1.15;;;19.20;88.80;;;;;;5014870;28;20641;-57
2022/09/02 00:15:28;;;;;;;1.25;1.10;;;19.20;88.50;;;;;;5014802;28;20176;-58
2022/09/02 00:17:54;;;;;;;1.20;1.10;;;19.20;88.80;;;;;;5014760;28;20177;-59
2022/09/02 00:20:20;;;;;;;1.33;0.98;;;19.20;88.80;;;;;;5014698;28;20187;-58
2022/09/02 00:22:45;;;;;;;1.48;1.25;;;19.10;88.70;;;;;;5014483;28;20172;-58
2022/09/02 00:25:12;;;;;;;1.92;1.02;;;19.10;88.90;;;;;;5014426;28;20172;-58
2022/09/02 00:27:37;;;;;;;1.50;1.33;;;19.20;88.60;;;;;;5013364;28;20189;-58
2022/09/02 00:30:05;;;;;;;2.78;1.20;;;19.20;88.80;;;;;;5014567;28;20188;-57
2022/09/02 00:32:30;;;;;;;2.70;1.10;;;19.20;89.00;;;;;;5013071;28;20570;-58
2022/09/02 00:34:57;;;;;;;1.40;1.30;;;19.10;89.20;;;;;;5014696;28;20181;-58
2022/09/02 00:37:24;;;;;;;3.05;1.48;;;19.00;89.60;;;;;;5014249;28;20220;-58
2022/09/02 00:39:51;;;;;;;3.00;1.45;;;18.90;89.70;;;;;;5012960;28;20176;-58
2022/09/02 00:42:18;;;;;;;1.40;1.17;;;18.90;89.40;;;;;;5014430;28;20263;-58
2022/09/02 00:44:44;;;;;;;2.33;1.20;;;19.00;89.50;;;;;;5013050;28;20267;-59
2022/09/02 00:47:10;;;;;;;1.77;1.33;;;18.90;89.80;;;;;;5014267;28;20710;-58
2022/09/02 00:49:39;;;;;;;3.00;1.30;;;18.90;89.60;;;;;;5012885;28;20180;-58
2022/09/02 00:52:13;;;;;;;2.72;1.50;;;18.90;89.50;;;;;;5012796;28;20184;-58
2022/09/02 00:54:45;;;;;;;1.83;1.30;;;18.90;89.70;;;;;;5014281;28;20214;-57
2022/09/02 00:57:18;;;;;;;1.48;1.25;;;18.80;90.00;;;;;;5014142;28;20220;-58
2022/09/02 01:00:05;;;;;;;2.50;1.20;;;18.70;90.10;;;;;;5014332;28;20200;-58
2022/09/02 01:02:31;;;;;;;1.65;1.23;;;18.70;90.20;;;;;;5013832;28;20180;-58
2022/09/02 01:04:59;;;;;;;1.58;1.48;;;18.80;90.20;;;;;;5013782;28;20230;-58
2022/09/02 01:07:28;;;;;;;2.25;1.38;;;18.80;90.20;;;;;;5014005;28;20732;-58
2022/09/02 01:09:55;;;;;;;3.05;1.45;;;18.80;90.30;;;;;;5013918;28;20725;-58
2022/09/02 01:12:21;;;;;;;1.90;1.20;;;18.70;90.10;;;;;;5012584;28;20185;-59
2022/09/02 01:14:47;;;;;;;1.88;1.35;;;18.70;90.30;;;;;;5013687;28;20333;-58
2022/09/02 01:17:18;;;;;;;2.28;1.40;;;18.60;90.30;;;;;;5013598;28;20255;-58
2022/09/02 01:19:49;;;;;;;1.63;1.30;;;18.60;90.30;;;;;;5013885;28;20180;-58
2022/09/02 01:22:21;;;;;;;1.67;1.17;;;18.60;90.30;;;;;;5013679;28;20172;-58
2022/09/02 01:24:47;;;;;;;1.40;1.15;;;18.60;90.40;;;;;;5013499;28;20173;-58
2022/09/02 01:27:18;;;;;;;1.77;1.40;;;18.60;90.50;;;;;;5012459;28;20650;-58
2022/09/02 01:29:49;;;;;;;1.42;1.30;;;18.60;90.40;;;;;;5013331;28;20192;-58
2022/09/02 01:32:14;;;;;;;1.80;1.70;;;18.50;90.50;;;;;;5014020;28;20203;-59
2022/09/02 01:34:40;;;;;;;2.08;1.50;;;18.40;90.60;;;;;;5013624;28;20181;-58
2022/09/02 01:37:06;;;;;;;2.78;1.58;;;18.50;90.70;;;;;;5013584;28;20208;-58
2022/09/02 01:39:32;;;;;;;2.25;1.48;;;18.40;90.70;;;;;;5013533;28;20626;-60
2022/09/02 01:41:59;;;;;;;1.58;1.30;;;18.40;90.80;;;;;;4996028;28;20522;-58
2022/09/02 01:44:26;;;;;;;1.85;1.40;;;18.30;90.80;;;;;;5013317;28;20192;-58
2022/09/02 01:46:53;;;;;;;2.28;1.48;;;18.30;90.70;;;;;;5013713;28;20267;-58
2022/09/02 01:49:19;;;;;;;1.95;1.48;;;18.30;90.70;;;;;;5015027;28;20176;-59
2022/09/02 01:51:45;;;;;;;2.72;1.55;;;18.30;90.70;;;;;;5016293;28;20200;-58
2022/09/02 01:54:11;;;;;;;2.17;1.50;;;18.30;90.90;;;;;;5017383;28;20216;-58
2022/09/02 01:56:37;;;;;;;1.52;1.30;;;18.20;91.10;;;;;;5017290;28;20200;-58
2022/09/02 01:59:06;;;;;;;1.42;1.27;;;18.20;90.90;;;;;;5016142;28;20235;-57
2022/09/02 02:01:33;;;;;;;2.83;1.80;;;18.10;90.90;;;;;;5017380;28;20204;-58
2022/09/02 02:04:00;;;;;;;2.45;1.50;;;18.10;91.20;;;;;;5017265;28;20180;-58
2022/09/02 02:06:26;;;;;;;1.58;1.40;;;18.10;91.20;;;;;;5016282;28;20279;-58
2022/09/02 02:08:52;;;;;;;2.58;1.42;;;18.00;91.30;;;;;;5017176;28;20173;-58
2022/09/02 02:11:23;;;;;;;3.47;1.73;;;18.00;91.30;;;;;;5015975;28;20179;-58
2022/09/02 02:13:50;;;;;;;1.83;1.48;;;18.00;91.40;;;;;;5017202;28;20173;-58
2022/09/02 02:16:16;;;;;;;2.63;1.77;;;18.00;91.40;;;;;;5017075;28;20215;-58
2022/09/02 02:18:41;;;;;;;3.80;1.90;;;17.90;91.40;;;;;;5017308;28;20224;-59
2022/09/02 02:21:07;;;;;;;3.53;1.77;;;17.90;91.60;;;;;;5016834;28;20534;-58
2022/09/02 02:23:33;;;;;;;1.38;1.27;;;17.80;91.80;;;;;;5016846;28;20184;-58
2022/09/02 02:25:59;;;;;;;2.15;1.95;;;17.80;91.80;;;;;;5016720;28;20208;-58
2022/09/02 02:28:25;;;;;;;3.03;1.77;;;17.90;91.90;;;;;;5015327;28;20192;-59
2022/09/02 02:30:51;;;;;;;3.08;2.15;;;17.80;91.70;;;;;;5015521;28;20272;-58
2022/09/02 02:33:18;;;;;;;2.08;1.70;;;17.70;91.80;;;;;;5015580;28;20251;-58
2022/09/02 02:35:43;;;;;;;2.40;1.67;;;17.70;91.80;;;;;;5015406;28;20200;-58
2022/09/02 02:38:09;;;;;;;2.35;1.50;;;17.70;91.90;;;;;;5016593;28;20219;-58
2022/09/02 02:40:35;;;;;;;2.60;2.05;;;17.70;92.00;;;;;;4998904;28;20180;-59
2022/09/02 02:43:01;;;;;;;2.30;2.05;;;17.60;92.10;;;;;;5016368;28;20192;-59
2022/09/02 02:45:27;;;;;;;2.67;1.73;;;17.60;92.30;;;;;;5016382;28;20177;-58
2022/09/02 02:47:53;;;;;;;2.85;1.42;;;17.60;92.30;;;;;;5015401;28;20180;-58
2022/09/02 02:50:21;;;;;;;2.83;1.50;;;17.70;92.10;;;;;;5016478;28;20173;-58
2022/09/02 02:52:47;;;;;;;2.65;1.58;;;17.80;92.20;;;;;;5015059;28;20534;-59
2022/09/02 02:55:14;;;;;;;2.72;1.88;;;17.60;92.30;;;;;;5016163;28;20204;-58
2022/09/02 02:57:41;;;;;;;3.47;2.03;;;17.70;92.20;;;;;;5016250;28;20212;-58
2022/09/02 03:00:21;;;;;;;2.05;1.70;;;17.70;92.20;;;;;;5014287;28;20622;-58
2022/09/02 03:02:48;;;;;;;2.25;1.85;;;17.60;92.30;;;;;;5014912;28;20165;-58
2022/09/02 03:05:16;;;;;;;3.65;2.20;;;17.70;92.30;;;;;;5016003;28;20181;-58
2022/09/02 03:07:42;;;;;;;2.65;1.80;;;17.60;92.30;;;;;;5015926;28;20188;-58
2022/09/02 03:10:11;;;;;;;2.50;1.65;;;17.60;92.30;;;;;;5016117;28;20181;-58
2022/09/02 03:12:38;;;;;;;2.45;1.63;;;17.50;92.40;;;;;;5016065;28;20173;-58
2022/09/02 03:15:06;;;;;;;2.22;1.70;;;17.50;92.40;;;;;;5014766;28;20180;-58
2022/09/02 03:17:31;;;;;;;2.20;1.70;;;17.50;92.50;;;;;;5014515;28;20223;-58
2022/09/02 03:19:57;;;;;;;1.92;1.50;;;17.40;92.90;;;;;;4998204;28;20180;-59
2022/09/02 03:22:24;;;;;;;1.70;1.52;;;17.30;92.80;;;;;;5014454;28;20177;-58
2022/09/02 03:24:49;;;;;;;3.20;1.70;;;17.50;92.90;;;;;;5014638;28;20172;-57
2022/09/02 03:27:15;;;;;;;3.00;1.60;;;17.50;93.00;;;;;;5015589;28;20260;-58
2022/09/02 03:29:41;;;;;;;2.63;1.80;;;17.40;93.00;;;;;;5015499;28;20551;-59
2022/09/02 03:32:07;;;;;;;2.45;1.67;;;17.40;93.10;;;;;;5015592;28;20246;-58
2022/09/02 03:34:33;;;;;;;2.20;1.77;;;17.40;93.10;;;;;;5015431;28;20185;-58
2022/09/02 03:36:58;;;;;;;2.10;1.70;;;17.30;93.20;;;;;;5015296;28;20204;-58
2022/09/02 03:39:24;;;;;;;2.65;1.50;;;17.30;93.20;;;;;;5015382;28;20184;-59
2022/09/02 03:41:52;;;;;;;2.45;2.03;;;17.30;93.30;;;;;;5015527;28;20187;-57
2022/09/02 03:44:18;;;;;;;2.10;1.65;;;17.30;93.30;;;;;;5015356;28;20515;-58
2022/09/02 03:46:44;;;;;;;2.65;1.63;;;17.30;93.50;;;;;;5015278;28;20215;-58
2022/09/02 03:49:10;;;;;;;1.55;1.30;;;17.40;93.40;;;;;;5013990;28;20200;-58
2022/09/02 03:51:40;;;;;;;2.85;2.10;;;17.30;93.50;;;;;;5015101;28;20173;-58
2022/09/02 03:54:06;;;;;;;1.65;1.50;;;17.30;93.60;;;;;;5014213;28;20191;-58
2022/09/02 03:56:33;;;;;;;2.63;1.75;;;17.30;93.70;;;;;;5015112;28;20283;-58
2022/09/02 03:58:59;;;;;;;1.67;1.58;;;17.20;93.90;;;;;;5015127;28;20181;-58
2022/09/02 04:01:25;;;;;;;1.77;1.60;;;17.10;94.30;;;;;;5015065;28;20173;-58
2022/09/02 04:03:52;;;;;;;1.83;1.63;;;17.10;94.20;;;;;;5014928;28;20181;-58
2022/09/02 04:06:19;;;;;;;2.25;1.60;;;17.00;94.00;;;;;;5014838;28;20168;-58
2022/09/02 04:08:46;;;;;;;1.63;1.45;;;17.00;94.10;;;;;;5015065;28;20226;-58
2022/09/02 04:11:16;;;;;;;2.72;1.85;;;17.00;94.10;;;;;;5014838;28;20271;-59
2022/09/02 04:13:43;;;;;;;2.47;1.70;;;17.10;94.10;;;;;;5014813;28;20181;-58
2022/09/02 04:16:14;;;;;;;2.00;1.60;;;17.10;94.10;;;;;;5014698;28;20197;-58
2022/09/02 04:18:40;;;;;;;2.50;1.20;;;17.10;94.10;;;;;;5014638;28;20200;-58
2022/09/02 04:21:07;;;;;;;2.20;1.75;;;17.10;94.00;;;;;;5013678;28;20176;-59
2022/09/02 04:23:33;;;;;;;2.30;1.63;;;17.10;94.10;;;;;;5014797;28;20175;-59
2022/09/02 04:26:03;;;;;;;1.58;1.48;;;16.90;94.30;;;;;;5013636;28;20177;-59
2022/09/02 04:28:29;;;;;;;3.10;1.38;;;16.90;94.30;;;;;;5014791;28;20196;-60
2022/09/02 04:30:55;;;;;;;1.77;1.50;;;16.80;94.50;;;;;;5014414;28;20172;-58
2022/09/02 04:33:20;;;;;;;1.35;1.25;;;16.90;94.50;;;;;;5013201;28;20181;-58
2022/09/02 04:35:51;;;;;;;1.63;1.50;;;17.00;94.50;;;;;;5014531;28;20204;-59
2022/09/02 04:38:16;;;;;;;2.38;1.58;;;17.00;94.30;;;;;;4997674;28;20606;-58
2022/09/02 04:40:44;;;;;;;1.77;1.60;;;17.00;94.40;;;;;;5014505;28;20169;-58
2022/09/02 04:43:11;;;;;;;1.85;1.45;;;17.00;94.50;;;;;;5014617;28;20265;-58
2022/09/02 04:45:44;;;;;;;1.58;1.48;;;17.00;94.60;;;;;;5014204;28;20252;-58
2022/09/02 04:48:11;;;;;;;1.80;1.40;;;17.00;94.70;;;;;;5014168;28;20200;-58
2022/09/02 04:50:39;;;;;;;1.77;1.55;;;16.90;94.80;;;;;;5014220;28;20164;-58
2022/09/02 04:53:05;;;;;;;1.33;1.23;;;16.90;94.80;;;;;;5013002;28;20657;-59
2022/09/02 04:55:32;;;;;;;1.42;1.30;;;16.90;94.70;;;;;;5013827;28;20634;-57
2022/09/02 04:57:58;;;;;;;2.53;1.75;;;17.00;94.70;;;;;;5014089;28;20184;-57
2022/09/02 05:00:24;;;;;;;2.47;1.48;;;16.90;94.80;;;;;;5013924;28;20177;-54
2022/09/02 05:02:52;;;;;;;1.27;1.15;;;16.90;94.90;;;;;;4996498;28;20626;-53
2022/09/02 05:05:17;;;;;;;2.33;1.45;;;16.90;95.00;;;;;;5014001;28;20267;-53
2022/09/02 05:07:43;;;;;;;1.90;1.40;;;17.00;94.90;;;;;;5013804;28;20654;-55
2022/09/02 05:10:13;;;;;;;1.10;1.00;;;16.90;95.00;;;;;;4996191;28;20690;-57
2022/09/02 05:12:40;;;;;;;1.35;1.25;;;16.90;95.00;;;;;;5013449;28;20179;-57
2022/09/02 05:15:08;;;;;;;1.20;1.10;;;16.90;95.10;;;;;;5011546;28;20180;-57
2022/09/02 05:17:35;;;;;;;1.40;1.30;;;16.80;95.10;;;;;;5012578;28;20689;-57
2022/09/02 05:20:04;;;;;;;1.85;1.52;;;16.90;95.10;;;;;;5012899;28;20181;-58
2022/09/02 05:22:29;;;;;;;2.75;1.55;;;16.90;95.10;;;;;;5013670;28;20184;-57
2022/09/02 05:24:55;;;;;;;1.85;1.65;;;16.80;95.20;;;;;;5011705;28;20547;-57
2022/09/02 05:27:22;;;;;;;3.13;1.42;;;16.80;95.40;;;;;;5013495;28;20522;-58
2022/09/02 05:29:48;;;;;;;2.15;1.27;;;16.80;95.60;;;;;;5013952;28;20191;-58
2022/09/02 05:32:14;;;;;;;1.30;1.20;;;16.80;95.50;;;;;;5013671;28;20177;-57
2022/09/02 05:34:40;;;;;;;1.67;1.40;;;16.80;95.70;;;;;;5013685;28;20203;-57
2022/09/02 05:37:06;;;;;;;2.15;1.45;;;16.80;95.70;;;;;;5013523;28;20247;-57
2022/09/02 05:39:32;;;;;;;1.67;1.55;;;16.80;95.80;;;;;;5013396;28;20181;-58
2022/09/02 05:41:57;;;;;;;1.30;1.20;;;16.80;95.90;;;;;;5013582;28;20184;-58
2022/09/02 05:44:24;;;;;;;1.60;1.40;;;16.80;96.00;;;;;;5013338;28;20618;-58
2022/09/02 05:46:50;;;;;;;2.00;1.40;;;16.90;96.00;;;;;;5013463;28;20223;-57
2022/09/02 05:49:20;;;;;;;1.83;1.45;;;16.80;96.00;;;;;;5013424;28;20185;-58
2022/09/02 05:51:47;;;;;;;1.50;1.40;;;16.90;96.10;;;;;;5012245;28;20177;-57
2022/09/02 05:54:17;;;;;;;2.78;1.40;;;16.90;96.20;;;;;;5013274;28;20227;-58
2022/09/02 05:56:44;;;;;;;1.30;1.20;;;16.90;96.10;;;;;;5013175;28;20215;-57
2022/09/02 05:59:11;;;;;;;1.40;1.30;;;17.00;96.10;;;;;;5012212;28;20187;-56
2022/09/02 06:01:36;;;;;;;2.10;1.90;;;17.10;96.30;;;;;;5013611;28;20562;-58
2022/09/02 06:04:04;;;;;;;1.80;1.45;;;17.00;96.40;;;;;;4995919;28;20180;-57
2022/09/02 06:06:31;;;;;;;1.85;1.17;;;17.00;96.40;;;;;;5013171;28;20677;-58
2022/09/02 06:08:58;;;;;;;1.60;1.02;;;17.10;96.50;;;;;;5011789;28;20267;-58
2022/09/02 06:11:24;;;;;;;1.45;1.15;;;17.20;96.60;;;;;;5012136;28;20191;-58
2022/09/02 06:13:51;;;;;;;1.30;1.20;;;17.30;96.30;;;;;;5012143;28;20176;-57
2022/09/02 06:16:20;;;;;;;2.13;1.38;;;17.40;96.10;;;;;;5013186;28;20196;-58
2022/09/02 06:18:47;;;;;;;1.48;1.25;;;17.90;96.00;;;;;;5013025;28;20645;-57
2022/09/02 06:21:14;;;;;;;1.48;1.38;;;18.30;95.60;;;;;;5011966;28;20177;-58
2022/09/02 06:23:40;;;;;;;1.48;1.35;;;18.50;95.20;;;;;;5012952;28;20177;-57
2022/09/02 06:26:07;;;;;;;1.30;1.20;;;18.80;94.90;;;;;;5012018;28;20208;-57
2022/09/02 06:28:34;;;;;;;1.33;1.10;;;18.90;94.30;;;;;;5011648;28;20254;-58
2022/09/02 06:31:05;;;;;;;1.98;1.65;;;18.90;94.40;;;;;;5013097;28;20526;-58
2022/09/02 06:33:31;;;;;;;4.28;1.73;;;19.10;94.20;;;;;;5011807;28;20180;-57
2022/09/02 06:35:57;;;;;;;1.90;1.40;;;19.00;94.20;;;;;;5015268;28;20682;-58
2022/09/02 06:38:22;;;;;;;1.55;1.42;;;19.00;94.20;;;;;;5016519;28;20623;-58
2022/09/02 06:40:54;;;;;;;2.05;1.50;;;19.00;94.10;;;;;;5016733;28;20262;-58
2022/09/02 06:43:20;;;;;;;4.28;1.88;;;18.90;94.40;;;;;;5016633;28;20177;-57
2022/09/02 06:45:46;;;;;;;1.70;1.20;;;18.90;94.50;;;;;;5016520;28;20541;-58
2022/09/02 06:48:12;;;;;;;2.00;1.20;;;18.90;94.60;;;;;;5016437;28;20169;-57
2022/09/02 06:50:45;;;;;;;1.23;1.13;;;19.00;94.20;;;;;;4998620;28;20271;-56
2022/09/02 06:53:11;;;;;;;1.35;1.10;;;19.20;94.40;;;;;;5016524;28;20223;-57
2022/09/02 06:55:39;;;;;;;1.10;1.00;;;19.30;94.10;;;;;;5016334;28;20180;-57
2022/09/02 06:58:05;;;;;;;1.33;1.13;;;19.50;94.40;;;;;;5016029;28;20184;-58
2022/09/02 07:00:31;;;;;;;1.83;1.20;;;19.50;94.00;;;;;;5016322;28;20181;-57
2022/09/02 07:05:42;;;;;;;2.25;1.33;;;19.50;93.80;;;;;;5015407;28;20238;-58
2022/09/02 07:08:08;;;;;;;2.33;1.80;;;19.50;93.80;;;;;;5016011;28;20169;-58
2022/09/02 07:10:38;;;;;;;1.15;1.00;;;19.60;93.90;;;;;;5014951;28;20173;-58
2022/09/02 07:13:04;;;;;;;1.27;1.17;;;19.70;93.90;;;;;;5016060;28;20234;-57
2022/09/02 07:15:30;;;;;;;1.50;1.35;;;19.80;93.70;;;;;;5015927;28;20219;-57
2022/09/02 07:17:56;;;;;;;1.38;1.20;;;19.90;93.80;;;;;;5015905;28;20209;-58
2022/09/02 07:20:23;;;;;;;1.23;1.13;;;20.00;93.80;;;;;;5015937;28;20648;-58
2022/09/02 07:22:49;;;;;;;1.88;1.30;;;20.10;93.80;;;;;;5015883;28;20653;-58
2022/09/02 07:25:15;;;;;;;1.73;1.25;;;20.40;93.80;;;;;;5014636;28;20181;-57
2022/09/02 07:27:42;;;;;;;1.73;1.27;;;20.60;93.70;;;;;;5015574;28;20181;-57
2022/09/02 07:30:09;;;;;;;1.40;1.30;;;20.70;93.40;;;;;;5015617;28;20239;-57
2022/09/02 07:32:37;;;;;;;2.30;1.17;;;20.70;93.20;;;;;;5015522;28;20199;-58
2022/09/02 07:35:05;;;;;;;1.77;1.50;;;20.70;93.20;;;;;;5015674;28;20180;-57
2022/09/02 07:37:33;;;;;;;2.20;1.13;;;20.80;93.40;;;;;;5015499;28;20654;-58
2022/09/02 07:40:00;;;;;;;3.35;1.48;;;21.00;93.20;;;;;;5014264;28;20223;-58
2022/09/02 07:42:26;;;;;;;1.27;1.17;;;21.20;93.10;;;;;;5015415;28;20173;-57
2022/09/02 07:44:52;;;;;;;1.92;1.13;;;21.30;92.80;;;;;;5015317;28;20184;-58
2022/09/02 07:47:18;;;;;;;1.42;1.15;;;21.40;92.90;;;;;;5015018;28;20177;-57
2022/09/02 07:49:44;;;;;;;1.92;1.20;;;21.60;92.80;;;;;;5015272;28;20181;-57
2022/09/02 07:52:09;;;;;;;2.72;1.10;;;21.80;92.60;;;;;;5015310;28;20177;-57
2022/09/02 07:54:35;;;;;;;1.77;1.30;;;22.00;92.60;;;;;;5015182;28;20180;-58
2022/09/02 07:57:00;;;;;;;1.58;1.15;;;22.20;92.60;;;;;;5015089;28;20208;-58
2022/09/02 07:59:26;;;;;;;1.63;1.40;;;22.20;92.50;;;;;;5014039;28;20593;-57
2022/09/02 08:01:52;;;;;;;1.30;1.20;;;22.40;92.50;;;;;;5014116;28;20184;-59
2022/09/02 08:04:22;;;;;;;1.20;1.10;;;22.30;92.20;;;;;;5015221;28;20173;-58
2022/09/02 08:06:49;;;;;;;1.30;1.20;;;22.40;92.30;;;;;;5014971;28;20180;-58
2022/09/02 08:09:15;;;;;;;1.08;1.00;;;22.40;92.20;;;;;;5014879;28;20248;-58
2022/09/02 08:11:43;;;;;;;1.95;1.00;;;22.40;91.60;;;;;;4997426;28;20587;-57
2022/09/02 08:14:13;;;;;;;1.17;1.08;;;22.70;91.60;;;;;;5014882;28;20712;-58
2022/09/02 08:16:39;;;;;;;1.20;1.10;;;22.70;91.40;;;;;;5014988;28;20204;-57
2022/09/02 08:19:06;;;;;;;1.30;1.00;;;22.70;91.00;;;;;;5014669;28;20203;-58
2022/09/02 08:21:32;;;;;;;1.77;1.20;;;22.90;91.30;;;;;;5013659;28;20308;-57
2022/09/02 08:23:59;;;;;;;1.35;1.13;;;22.90;90.80;;;;;;5013528;28;20693;-58
2022/09/02 08:26:27;;;;;;;1.90;1.33;;;23.10;91.10;;;;;;5013394;28;20195;-57
2022/09/02 08:28:53;;;;;;;1.63;1.20;;;23.30;91.00;;;;;;5013275;28;20204;-58
2022/09/02 08:31:19;;;;;;;1.17;1.00;;;23.30;90.80;;;;;;5014520;28;20188;-58
2022/09/02 08:33:45;;;;;;;1.52;0.98;;;23.20;90.90;;;;;;5014601;28;20177;-58
2022/09/02 08:36:13;;;;;;;1.20;1.10;;;23.30;91.00;;;;;;5013297;28;20215;-58
2022/09/02 08:38:40;;;;;;;1.38;1.15;;;23.20;90.60;;;;;;5014369;28;20176;-58
2022/09/02 08:41:24;;;;;;;1.17;1.08;;;23.20;90.40;;;;;;5014221;28;20231;-57
2022/09/02 08:43:54;;;;;;;1.55;1.10;;;23.40;90.50;;;;;;5014420;28;20207;-57
2022/09/02 08:46:24;;;;;;;1.40;1.30;;;23.50;90.70;;;;;;5014331;28;20172;-58
2022/09/02 08:48:58;;;;;;;1.50;1.38;;;23.70;90.50;;;;;;5014632;28;20188;-57
2022/09/02 08:51:31;;;;;;;1.02;0.90;;;23.70;90.30;;;;;;5013104;28;20256;-57
2022/09/02 08:54:07;;;;;;;1.00;1.00;;;23.80;90.40;;;;;;5014318;28;20181;-58
2022/09/02 08:56:33;;;;;;;1.38;1.23;;;23.90;90.00;;;;;;5014132;28;20227;-57
2022/09/02 08:59:01;;;;;;;1.48;1.30;;;24.00;90.00;;;;;;5013332;28;20234;-58
2022/09/02 09:01:39;;;;;;;1.23;1.20;;;24.20;90.40;;;;;;5013943;28;20207;-59
2022/09/02 09:04:17;;;;;;;1.73;1.35;;;24.20;89.70;;;;;;5013894;28;20230;-59
2022/09/02 09:06:52;;;;;;;1.30;1.10;;;24.40;89.80;;;;;;5014299;28;20550;-58
2022/09/02 09:09:35;;;;;;;1.55;1.00;;;24.50;90.00;;;;;;5012801;28;20180;-58
2022/09/02 09:12:40;;;;;;;1.20;1.10;;;24.50;90.20;;;;;;5013959;28;20188;-58
2022/09/02 09:15:32;;;;;;;1.25;1.15;;;24.70;90.00;;;;;;5014410;28;20215;-57
2022/09/02 09:18:01;;;;;;;1.00;0.90;;;24.90;88.60;;;;;;4995360;28;20251;-58
2022/09/02 09:20:31;;;;;;;1.17;1.08;;;24.80;88.60;;;;;;5013736;28;20223;-58
2022/09/02 09:22:59;;;;;;;0.90;0.90;;;24.90;88.80;;;;;;5013904;28;20172;-58
2022/09/02 09:25:30;;;;;;;1.55;1.05;;;24.90;88.00;;;;;;5013795;28;20256;-56
2022/09/02 09:27:57;;;;;;;0.90;0.90;;;25.00;89.00;;;;;;5012264;28;20184;-58
2022/09/02 09:30:24;;;;;;;1.30;1.20;;;25.30;89.40;;;;;;5013689;28;20195;-58
2022/09/02 09:32:58;;;;;;;1.30;1.20;;;25.40;88.10;;;;;;5013488;28;20185;-57
2022/09/02 09:35:25;;;;;;;1.17;0.90;;;25.30;88.10;;;;;;5013500;28;20176;-58
2022/09/02 09:37:53;;;;;;;1.50;1.10;;;25.30;88.40;;;;;;5013652;28;20204;-58
2022/09/02 09:40:24;;;;;;;1.13;0.90;;;25.50;89.10;;;;;;5012466;28;20185;-59
2022/09/02 09:43:02;;;;;;;1.30;1.00;;;25.70;88.70;;;;;;5012276;28;20183;-57
2022/09/02 09:45:30;;;;;;;1.35;1.00;;;25.70;87.90;;;;;;5013770;28;20526;-57
2022/09/02 09:48:06;;;;;;;1.00;0.90;;;25.80;88.10;;;;;;5013375;28;20176;-58
2022/09/02 09:50:32;;;;;;;1.40;0.88;;;25.70;87.00;;;;;;5013481;28;20238;-58
2022/09/02 09:53:41;;;;;;;1.15;1.10;;;25.70;87.40;;;;;;5013463;28;20196;-58
2022/09/02 09:56:26;;;;;;;1.20;1.10;;;25.70;87.60;;;;;;5011078;28;20270;-57
2022/09/02 09:58:52;;;;;;;1.17;1.08;;;25.70;87.90;;;;;;5013156;28;20657;-57
2022/09/02 10:01:22;;;;;;;1.20;1.08;;;25.70;87.40;;;;;;5012479;28;20258;-57
2022/09/02 10:04:01;;;;;;;0.82;0.82;;;25.90;88.70;;;;;;5012097;28;20176;-58
2022/09/02 10:06:29;;;;;;;1.35;1.13;;;25.90;87.00;;;;;;5013164;28;20642;-56
2022/09/02 10:08:59;;;;;;;1.25;0.90;;;25.80;87.70;;;;;;5013334;28;20168;-59
2022/09/02 10:11:35;;;;;;;1.20;1.08;;;26.00;87.50;;;;;;5016697;28;20169;-58
2022/09/02 10:14:07;;;;;;;1.35;1.20;;;26.10;87.10;;;;;;5017102;28;20182;-56
2022/09/02 10:16:35;;;;;;;1.88;1.33;;;26.20;86.80;;;;;;5016971;28;20203;-57
2022/09/02 10:19:29;;;;;;;1.23;1.10;;;25.90;87.10;;;;;;5016871;28;20180;-55
2022/09/02 10:22:19;;;;;;;1.08;0.90;;;26.40;88.60;;;;;;5017060;28;20549;-58
2022/09/02 10:24:51;;;;;;;2.10;1.00;;;26.60;86.80;;;;;;5016867;28;20181;-57
2022/09/02 10:27:46;;;;;;;1.23;1.10;;;26.80;85.90;;;;;;5016719;28;20180;-58
2022/09/02 10:30:20;;;;;;;1.20;1.10;;;26.60;85.00;;;;;;5016721;28;20653;-58
2022/09/02 10:33:00;;;;;;;0.98;0.90;;;26.60;86.30;;;;;;5016589;28;20776;-58
2022/09/02 10:35:44;;;;;;;1.20;1.10;;;26.50;86.00;;;;;;5016676;28;20218;-57
2022/09/02 10:38:25;;;;;;;1.50;1.23;;;26.30;87.00;;;;;;5016781;28;20257;-58
2022/09/02 10:41:16;;;;;;;1.00;0.95;;;26.20;86.90;;;;;;5016609;28;20180;-57
2022/09/02 10:44:00;;;;;;;1.00;1.00;;;26.20;86.20;;;;;;5016477;28;20175;-58
2022/09/02 10:46:43;;;;;;;1.02;0.80;;;26.30;86.80;;;;;;5016663;28;20215;-57
2022/09/02 10:49:30;;;;;;;1.30;1.10;;;26.20;86.30;;;;;;5015297;28;20176;-58
2022/09/02 10:52:17;;;;;;;1.23;0.85;;;26.20;87.50;;;;;;5016382;28;20219;-58
2022/09/02 10:55:06;;;;;;;1.20;1.02;;;26.60;86.60;;;;;;5016278;28;20172;-58
2022/09/02 10:57:43;;;;;;;1.38;1.27;;;26.70;86.30;;;;;;5016140;28;20215;-58
2022/09/02 11:00:12;;;;;;;0.93;0.90;;;26.80;86.40;;;;;;5016283;28;20168;-57
2022/09/02 11:02:44;;;;;;;1.20;1.10;;;26.90;85.80;;;;;;5016338;28;20252;-57
2022/09/02 11:05:36;;;;;;;1.27;1.17;;;26.90;84.80;;;;;;5016083;28;20192;-58
2022/09/02 11:08:25;;;;;;;1.00;1.00;;;27.00;85.90;;;;;;5014959;28;20179;-57
2022/09/02 11:11:13;;;;;;;1.05;0.95;;;26.80;84.90;;;;;;5015997;28;20672;-57
2022/09/02 11:13:49;;;;;;;1.05;0.95;;;26.80;84.50;;;;;;5016003;28;20227;-58
2022/09/02 11:16:24;;;;;;;1.75;1.10;;;26.50;85.00;;;;;;5015963;28;20658;-58
2022/09/02 11:19:02;;;;;;;0.90;0.90;;;26.50;84.80;;;;;;5014665;28;20270;-57
2022/09/02 11:21:30;;;;;;;0.95;0.90;;;26.60;85.00;;;;;;5014707;28;20187;-58
2022/09/02 11:24:05;;;;;;;0.80;0.80;;;26.60;84.20;;;;;;5015837;28;20169;-58
2022/09/02 11:26:48;;;;;;;1.15;1.00;;;26.60;83.90;;;;;;5015830;28;20699;-57
2022/09/02 11:29:21;;;;;;;1.05;0.85;;;26.50;84.70;;;;;;5015537;28;20193;-57
2022/09/02 11:32:06;;;;;;;1.88;0.90;;;26.50;84.60;;;;;;5015534;28;20218;-58
2022/09/02 11:34:47;;;;;;;1.10;1.00;;;26.80;85.10;;;;;;5015692;28;20180;-58
2022/09/02 11:37:38;;;;;;;1.85;1.00;;;26.80;83.30;;;;;;5014223;28;20200;-58
2022/09/02 11:40:24;;;;;;;1.08;0.93;;;27.10;83.90;;;;;;5014213;28;20247;-58
2022/09/02 11:42:54;;;;;;;1.00;1.00;;;27.10;83.30;;;;;;5015515;28;20530;-57
2022/09/02 11:45:55;;;;;;;0.90;0.90;;;26.90;82.80;;;;;;5015828;28;20649;-58
2022/09/02 11:48:39;;;;;;;1.00;0.90;;;26.70;82.70;;;;;;5015408;28;20373;-58
2022/09/02 11:51:31;;;;;;;1.13;1.00;;;27.00;82.90;;;;;;5015241;28;20177;-57
2022/09/02 11:54:00;;;;;;;0.80;0.80;;;27.10;82.60;;;;;;5015698;28;20847;-58
2022/09/02 11:56:36;;;;;;;1.17;1.00;;;27.40;81.60;;;;;;5015166;28;20197;-57
2022/09/02 11:59:05;;;;;;;0.60;0.60;;;27.50;81.00;;;;;;5014814;28;20192;-57
2022/09/02 12:01:38;;;;;;;1.52;0.98;;;27.50;81.00;;;;;;5015024;28;20188;-57
2022/09/02 12:04:20;;;;;;;0.85;0.85;;;27.30;80.90;;;;;;5015166;28;20173;-58
2022/09/02 12:07:05;;;;;;;1.58;1.00;;;27.10;80.70;;;;;;5014998;28;20213;-58
2022/09/02 12:09:45;;;;;;;1.35;0.90;;;27.00;79.80;;;;;;5014868;28;20199;-57
2022/09/02 12:12:40;;;;;;;1.10;1.00;;;26.90;79.60;;;;;;5014918;28;20179;-58
2022/09/02 12:15:10;;;;;;;1.13;0.90;;;27.00;80.20;;;;;;4996722;28;20222;-58
2022/09/02 12:17:36;;;;;;;1.70;0.80;;;27.20;80.10;;;;;;5014567;28;20212;-58
2022/09/02 12:20:05;;;;;;;0.90;0.80;;;27.60;79.80;;;;;;5013335;28;20172;-57
2022/09/02 12:22:39;;;;;;;0.80;0.80;;;27.70;79.20;;;;;;5014791;28;20192;-57
2022/09/02 12:25:24;;;;;;;0.82;0.70;;;27.60;77.90;;;;;;5013583;28;20191;-57
2022/09/02 12:28:13;;;;;;;1.17;0.95;;;27.60;77.50;;;;;;5014329;28;20208;-58
2022/09/02 12:31:00;;;;;;;0.68;0.68;;;27.70;77.90;;;;;;5014870;28;20179;-57
2022/09/02 12:33:30;;;;;;;0.70;0.70;;;27.80;77.20;;;;;;5014364;28;20175;-57
2022/09/02 12:35:57;;;;;;;0.68;0.68;;;27.80;77.10;;;;;;5014346;28;20177;-58
2022/09/02 12:38:37;;;;;;;0.75;0.73;;;27.30;76.80;;;;;;5014340;28;20216;-58
2022/09/02 12:41:03;;;;;;;0.80;0.70;;;27.10;77.20;;;;;;5014579;28;20169;-57
2022/09/02 12:44:15;;;;;;;1.10;0.70;;;27.10;76.50;;;;;;5014381;28;20188;-58
2022/09/02 12:46:43;;;;;;;0.65;0.65;;;26.90;75.30;;;;;;4998560;28;20535;-58
2022/09/02 12:49:34;;;;;;;1.10;0.60;;;26.80;77.40;;;;;;5014077;28;20646;-58
2022/09/02 12:52:07;;;;;;;0.63;0.63;;;27.00;76.90;;;;;;5014250;28;20169;-58
2022/09/02 12:54:48;;;;;;;0.82;0.80;;;27.10;75.50;;;;;;5014208;28;20621;-58
2022/09/02 12:57:16;;;;;;;0.80;0.80;;;27.30;76.50;;;;;;5014011;28;20207;-57
2022/09/02 12:59:44;;;;;;;0.88;0.88;;;27.50;76.20;;;;;;5013874;28;20188;-58
2022/09/02 13:02:16;;;;;;;1.15;0.77;;;27.80;75.90;;;;;;5014123;28;20185;-58
2022/09/02 13:05:00;;;;;;;0.70;0.70;;;27.80;74.80;;;;;;5014064;28;20211;-58
2022/09/02 13:07:52;;;;;;;0.70;0.70;;;27.70;75.50;;;;;;5013876;28;20172;-57